sim
Sign-in with your pilot id or email,
or register
Callsign
Passwort

Schedule Details

Flight Number: DLH1842
Departure: Munich Airport (EDDM) at 07:55
Arrival: Rome Leonardo da Vinci Fiumicino Airport (LIRF) at 09:25
Route: Lufthansa Passenger Schedule. Enter filed route here before submitting Pirep.

Weather Information
Getting current METAR information for EDDM 210620Z 00000KT CAVOK 09/09 Q1017 BECMG 09005KT
Getting current METAR information for LIRF 210620Z VRB01KT 7000 FEW010CB SCT020 20/19 Q1015 TEMPO TSRA

Schedule Frequency

Route Map